createdAt,value
2023-04-16T00:01:02.661Z,6.819153
2023-04-16T00:02:11.394Z,6.819153
2023-04-16T00:03:20.235Z,6.77887
2023-04-16T00:04:30.984Z,6.738586
2023-04-16T00:05:39.727Z,6.718445
2023-04-16T00:06:49.552Z,6.78894
2023-04-16T00:07:59.265Z,6.819153
2023-04-16T00:09:07.262Z,6.748657
2023-04-16T00:10:16.741Z,6.688232
2023-04-16T00:11:26.430Z,6.597595
2023-04-16T00:12:34.086Z,6.617737
2023-04-16T00:13:42.768Z,6.637878
2023-04-16T00:14:50.559Z,6.627808
2023-04-16T00:15:59.246Z,6.688232
2023-04-16T00:17:08.032Z,6.698303
2023-04-16T00:18:16.665Z,6.768799
2023-04-16T00:19:26.342Z,6.768799
2023-04-16T00:20:35.017Z,6.839294
2023-04-16T00:21:43.722Z,6.849365
2023-04-16T00:22:53.522Z,6.919861
2023-04-16T00:24:02.231Z,6.849365
2023-04-16T00:25:10.899Z,6.819153
2023-04-16T00:26:20.648Z,6.809082
2023-04-16T00:27:29.322Z,6.738586
2023-04-16T00:28:38.990Z,6.698303
2023-04-16T00:29:47.665Z,6.748657
2023-04-16T00:30:56.413Z,6.78894
2023-04-16T00:32:06.083Z,6.768799
2023-04-16T00:33:14.806Z,6.78894
2023-04-16T00:34:23.469Z,6.819153
2023-04-16T00:35:33.194Z,6.718445
2023-04-16T00:36:41.872Z,6.768799
2023-04-16T00:37:51.525Z,6.718445
2023-04-16T00:39:00.209Z,6.768799
2023-04-16T00:40:07.874Z,6.718445
2023-04-16T00:41:16.561Z,6.748657
2023-04-16T00:42:26.326Z,6.77887
2023-04-16T00:43:34.903Z,6.738586
2023-04-16T00:44:44.575Z,6.748657
2023-04-16T00:45:53.325Z,6.637878
2023-04-16T00:47:01.958Z,6.698303
2023-04-16T00:48:11.640Z,6.718445
2023-04-16T00:49:20.431Z,6.718445
2023-04-16T00:50:29.108Z,6.77887
2023-04-16T00:51:38.821Z,6.738586
2023-04-16T00:52:46.502Z,6.718445
2023-04-16T00:53:56.156Z,6.65802
2023-04-16T00:55:04.838Z,6.698303
2023-04-16T00:56:12.558Z,6.698303
2023-04-16T00:57:23.242Z,6.668091
2023-04-16T00:58:30.928Z,6.77887
2023-04-16T00:59:38.588Z,6.849365
2023-04-16T01:00:48.287Z,6.849365
2023-04-16T01:01:58.036Z,6.849365
2023-04-16T01:03:07.750Z,6.768799
2023-04-16T01:04:17.449Z,6.668091
2023-04-16T01:05:25.034Z,6.567383
2023-04-16T01:06:34.730Z,6.637878
2023-04-16T01:07:44.426Z,6.65802
2023-04-16T01:08:53.090Z,6.567383
2023-04-16T01:10:02.834Z,6.65802
2023-04-16T01:11:11.878Z,6.718445
2023-04-16T01:12:21.651Z,6.65802
2023-04-16T01:13:30.326Z,6.597595
2023-04-16T01:14:39.011Z,6.668091
2023-04-16T01:15:48.717Z,6.698303
2023-04-16T01:16:56.485Z,6.698303
2023-04-16T01:18:06.157Z,6.698303
2023-04-16T01:19:15.808Z,6.718445
2023-04-16T01:20:24.471Z,6.748657
2023-04-16T01:21:34.205Z,6.738586
2023-04-16T01:22:42.903Z,6.748657
2023-04-16T01:23:50.581Z,6.738586
2023-04-16T01:24:59.251Z,6.839294
2023-04-16T01:26:06.943Z,6.78894
2023-04-16T01:27:15.614Z,6.839294
2023-04-16T01:28:24.301Z,6.849365
2023-04-16T01:29:32.958Z,6.809082
2023-04-16T01:30:42.640Z,6.77887
2023-04-16T01:31:52.466Z,6.698303
2023-04-16T01:33:01.144Z,6.718445
2023-04-16T01:34:10.793Z,6.77887
2023-04-16T01:35:18.469Z,6.738586
2023-04-16T01:36:27.212Z,6.78894
2023-04-16T01:37:36.880Z,6.77887
2023-04-16T01:38:46.563Z,6.748657
2023-04-16T01:39:56.235Z,6.698303
2023-04-16T01:41:04.925Z,6.698303
2023-04-16T01:42:13.582Z,6.738586
2023-04-16T01:43:23.326Z,6.839294
2023-04-16T01:44:31.007Z,6.869507
2023-04-16T01:45:39.695Z,6.879578
2023-04-16T01:46:49.432Z,6.768799
2023-04-16T01:47:58.106Z,6.78894
2023-04-16T01:49:06.785Z,6.738586
2023-04-16T01:50:15.402Z,6.738586
2023-04-16T01:51:24.087Z,6.77887
2023-04-16T01:52:34.767Z,6.819153
2023-04-16T01:53:42.433Z,6.839294
2023-04-16T01:54:51.094Z,6.819153
2023-04-16T01:56:00.793Z,6.869507
2023-04-16T01:57:08.471Z,6.869507
2023-04-16T01:58:18.155Z,6.839294
2023-04-16T01:59:26.856Z,6.839294
2023-04-16T02:00:35.540Z,6.819153
2023-04-16T02:01:45.229Z,6.869507
2023-04-16T02:02:53.039Z,6.809082
2023-04-16T02:04:01.702Z,6.809082
2023-04-16T02:05:11.238Z,6.77887
2023-04-16T02:06:18.932Z,6.879578
2023-04-16T02:07:28.601Z,6.839294
2023-04-16T02:08:37.251Z,6.919861
2023-04-16T02:09:45.928Z,6.849365
2023-04-16T02:10:55.594Z,6.919861
2023-04-16T02:12:03.304Z,6.919861
2023-04-16T02:13:11.980Z,6.950073
2023-04-16T02:14:21.680Z,6.970215
2023-04-16T02:15:29.339Z,6.869507
2023-04-16T02:16:39.037Z,6.929932
2023-04-16T02:17:47.759Z,6.950073
2023-04-16T02:18:56.407Z,6.839294
2023-04-16T02:20:06.063Z,6.869507
2023-04-16T02:21:13.755Z,6.929932
2023-04-16T02:22:22.466Z,6.889648
2023-04-16T02:23:32.139Z,6.950073
2023-04-16T02:24:39.947Z,6.990356
2023-04-16T02:25:49.613Z,6.960144
2023-04-16T02:26:58.340Z,7.03064
2023-04-16T02:28:07.012Z,7.111206
2023-04-16T02:29:17.678Z,7.101135
2023-04-16T02:30:25.346Z,7.03064
2023-04-16T02:31:35.054Z,7.151489
2023-04-16T02:32:43.786Z,7.060852
2023-04-16T02:33:53.500Z,7.070923
2023-04-16T02:35:03.172Z,7.070923
2023-04-16T02:36:12.858Z,7.020569
2023-04-16T02:37:21.534Z,6.960144
2023-04-16T02:38:32.205Z,7.000427
2023-04-16T02:39:41.871Z,7.03064
2023-04-16T02:40:50.591Z,6.990356
2023-04-16T02:42:00.309Z,6.990356
2023-04-16T02:43:08.983Z,6.929932
2023-04-16T02:44:17.700Z,6.970215
2023-04-16T02:45:27.398Z,6.929932
2023-04-16T02:46:36.086Z,6.990356
2023-04-16T02:47:44.830Z,7.050781
2023-04-16T02:48:54.478Z,6.960144
2023-04-16T02:50:03.176Z,6.929932
2023-04-16T02:51:12.886Z,6.869507
2023-04-16T02:52:22.620Z,6.990356
2023-04-16T02:53:30.288Z,6.960144
2023-04-16T02:54:39.977Z,6.990356
2023-04-16T02:55:47.652Z,6.950073
2023-04-16T02:56:57.309Z,6.960144
2023-04-16T02:58:07.025Z,7.000427
2023-04-16T02:59:14.690Z,7.03064
2023-04-16T03:00:24.360Z,7.03064
2023-04-16T03:01:33.097Z,6.960144
2023-04-16T03:02:40.839Z,6.960144
2023-04-16T03:03:49.419Z,6.929932
2023-04-16T03:04:58.114Z,6.960144
2023-04-16T03:06:06.780Z,6.879578
2023-04-16T03:07:16.506Z,6.889648
2023-04-16T03:08:25.208Z,6.889648
2023-04-16T03:09:34.881Z,6.950073
2023-04-16T03:10:43.582Z,6.960144
2023-04-16T03:11:52.247Z,6.919861
2023-04-16T03:13:02.109Z,6.990356
2023-04-16T03:14:09.690Z,6.970215
2023-04-16T03:15:19.362Z,6.889648
2023-04-16T03:16:30.041Z,6.929932
2023-04-16T03:17:37.779Z,6.929932
2023-04-16T03:18:47.457Z,6.889648
2023-04-16T03:19:57.174Z,6.889648
2023-04-16T03:21:04.861Z,6.919861
2023-04-16T03:22:13.532Z,6.970215
2023-04-16T03:23:21.263Z,6.929932
2023-04-16T03:24:29.959Z,6.960144
2023-04-16T03:25:38.622Z,6.950073
2023-04-16T03:26:47.351Z,6.889648
2023-04-16T03:27:57.039Z,6.950073
2023-04-16T03:29:07.007Z,6.839294
2023-04-16T03:30:15.507Z,6.809082
2023-04-16T03:31:26.185Z,6.768799
2023-04-16T03:32:33.883Z,6.819153
2023-04-16T03:33:42.567Z,6.869507
2023-04-16T03:34:50.248Z,6.929932
2023-04-16T03:35:59.923Z,6.990356
2023-04-16T03:37:09.588Z,6.990356
2023-04-16T03:38:18.272Z,6.960144
2023-04-16T03:39:27.981Z,6.960144
2023-04-16T03:40:37.614Z,6.960144
2023-04-16T03:41:46.296Z,6.889648
2023-04-16T03:42:55.985Z,6.950073
2023-04-16T03:44:04.681Z,7.050781
2023-04-16T03:45:13.347Z,7.050781
2023-04-16T03:46:23.045Z,6.960144
2023-04-16T03:47:31.708Z,6.990356
2023-04-16T03:48:41.432Z,6.919861
2023-04-16T03:49:49.110Z,6.77887
2023-04-16T03:50:57.774Z,6.889648
2023-04-16T03:52:06.457Z,6.929932
2023-04-16T03:53:14.146Z,6.960144
2023-04-16T03:54:23.843Z,6.970215
2023-04-16T03:55:33.552Z,6.990356
2023-04-16T03:56:41.179Z,7.000427
2023-04-16T03:57:50.898Z,6.990356
2023-04-16T03:58:58.587Z,7.070923
2023-04-16T04:00:07.253Z,7.03064
2023-04-16T04:01:16.931Z,7.020569
2023-04-16T04:02:25.706Z,6.970215
2023-04-16T04:03:35.500Z,6.970215
2023-04-16T04:04:44.149Z,6.869507
2023-04-16T04:05:51.769Z,6.929932
2023-04-16T04:07:01.467Z,6.970215
2023-04-16T04:08:09.238Z,7.03064
2023-04-16T04:09:17.942Z,6.929932
2023-04-16T04:10:27.602Z,6.879578
2023-04-16T04:11:35.275Z,6.879578
2023-04-16T04:12:44.920Z,7.000427
2023-04-16T04:13:53.616Z,6.889648
2023-04-16T04:15:01.397Z,6.929932
2023-04-16T04:16:10.990Z,6.960144
2023-04-16T04:17:19.723Z,6.990356
2023-04-16T04:18:30.401Z,7.050781
2023-04-16T04:19:44.551Z,6.990356
2023-04-16T04:20:50.776Z,6.960144
2023-04-16T04:22:00.457Z,7.000427
2023-04-16T04:23:09.099Z,6.960144
2023-04-16T04:24:18.820Z,6.970215
2023-04-16T04:25:28.493Z,7.03064
2023-04-16T04:26:37.163Z,6.990356
2023-04-16T04:27:45.827Z,7.000427
2023-04-16T04:28:55.498Z,6.970215
2023-04-16T04:30:05.200Z,7.000427
2023-04-16T04:31:14.862Z,7.020569
2023-04-16T04:32:23.530Z,6.970215
2023-04-16T04:33:31.229Z,6.950073
2023-04-16T04:34:40.873Z,6.960144
2023-04-16T04:35:48.547Z,7.000427
2023-04-16T04:36:57.222Z,6.929932
2023-04-16T04:38:06.878Z,6.919861
2023-04-16T04:39:16.548Z,6.919861
2023-04-16T04:40:24.203Z,6.950073
2023-04-16T04:41:33.868Z,6.970215
2023-04-16T04:42:41.577Z,6.970215
2023-04-16T04:43:50.311Z,6.990356
2023-04-16T04:44:59.943Z,6.869507
2023-04-16T04:46:07.684Z,6.819153
2023-04-16T04:47:16.301Z,6.77887
2023-04-16T04:48:24.994Z,6.809082
2023-04-16T04:49:33.665Z,6.819153
2023-04-16T04:50:43.335Z,6.849365
2023-04-16T04:51:51.003Z,6.970215
2023-04-16T04:53:00.691Z,6.919861
2023-04-16T04:54:10.384Z,6.960144
2023-04-16T04:55:18.040Z,6.960144
2023-04-16T04:56:27.698Z,6.929932
2023-04-16T04:57:37.358Z,6.929932
2023-04-16T04:58:46.052Z,6.879578
2023-04-16T04:59:55.722Z,6.879578
2023-04-16T05:01:05.404Z,6.869507
2023-04-16T05:02:14.077Z,6.919861
2023-04-16T05:03:23.811Z,7.020569
2023-04-16T05:04:32.393Z,7.020569
2023-04-16T05:05:42.064Z,6.960144
2023-04-16T05:06:49.713Z,6.970215
2023-04-16T05:07:57.389Z,6.990356
2023-04-16T05:09:07.176Z,7.050781
2023-04-16T05:10:15.775Z,7.101135
2023-04-16T05:11:24.474Z,7.070923
2023-04-16T05:12:34.163Z,6.990356
2023-04-16T05:13:41.819Z,6.950073
2023-04-16T05:14:51.526Z,6.950073
2023-04-16T05:16:00.230Z,7.03064
2023-04-16T05:17:09.880Z,7.020569
2023-04-16T05:18:19.545Z,6.960144
2023-04-16T05:19:27.306Z,7.060852
2023-04-16T05:20:35.984Z,7.101135
2023-04-16T05:21:45.670Z,7.03064
2023-04-16T05:22:53.350Z,7.03064
2023-04-16T05:24:03.026Z,7.000427
2023-04-16T05:25:11.740Z,6.919861
2023-04-16T05:26:20.430Z,6.929932
2023-04-16T05:27:30.138Z,6.929932
2023-04-16T05:28:38.808Z,6.970215
2023-04-16T05:29:47.504Z,6.879578
2023-04-16T05:30:57.243Z,6.929932
2023-04-16T05:32:04.900Z,6.990356
2023-04-16T05:33:14.563Z,6.960144
2023-04-16T05:34:23.363Z,6.950073
2023-04-16T05:35:32.076Z,6.970215
2023-04-16T05:36:41.762Z,7.060852
2023-04-16T05:37:49.433Z,6.990356
2023-04-16T05:38:59.152Z,6.849365
2023-04-16T05:40:08.869Z,6.869507
2023-04-16T05:41:17.554Z,6.809082
2023-04-16T05:42:27.256Z,6.768799
2023-04-16T05:43:35.953Z,6.78894
2023-04-16T05:44:43.707Z,6.78894
2023-04-16T05:45:53.405Z,6.889648
2023-04-16T05:47:01.088Z,6.889648
2023-04-16T05:48:09.777Z,7.050781
2023-04-16T05:49:19.462Z,7.050781
2023-04-16T05:50:29.180Z,7.101135
2023-04-16T05:51:38.857Z,7.181702
2023-04-16T05:52:47.550Z,7.111206
2023-04-16T05:53:55.234Z,6.960144
2023-04-16T05:55:04.953Z,7.050781
2023-04-16T05:56:13.690Z,7.060852
2023-04-16T05:57:22.378Z,7.101135
2023-04-16T05:58:32.081Z,6.990356
2023-04-16T05:59:40.779Z,6.879578
2023-04-16T06:00:50.466Z,6.869507
2023-04-16T06:01:59.173Z,6.929932
2023-04-16T06:03:07.952Z,6.839294
2023-04-16T06:04:17.701Z,6.839294
2023-04-16T06:05:27.241Z,6.950073
2023-04-16T06:06:36.915Z,6.809082
2023-04-16T06:07:46.608Z,6.929932
2023-04-16T06:08:54.292Z,6.929932
2023-04-16T06:10:03.981Z,6.809082
2023-04-16T06:11:12.665Z,6.929932
2023-04-16T06:12:21.354Z,7.060852
2023-04-16T06:13:31.025Z,7.151489
2023-04-16T06:14:39.710Z,7.131348
2023-04-16T06:15:48.408Z,7.171631
2023-04-16T06:16:59.046Z,7.03064
2023-04-16T06:18:06.727Z,7.201843
2023-04-16T06:19:16.406Z,7.111206
2023-04-16T06:20:26.119Z,7.03064
2023-04-16T06:21:34.772Z,7.141418
2023-04-16T06:22:44.443Z,7.28241
2023-04-16T06:23:53.139Z,7.242126
2023-04-16T06:25:01.837Z,7.352905
2023-04-16T06:26:11.536Z,7.383118
2023-04-16T06:27:20.201Z,7.211914
2023-04-16T06:28:29.905Z,7.211914
2023-04-16T06:29:41.309Z,7.201843
2023-04-16T06:30:46.284Z,7.181702
2023-04-16T06:31:56.011Z,7.232056
2023-04-16T06:33:04.697Z,7.211914
2023-04-16T06:34:12.294Z,7.070923
2023-04-16T06:35:22.046Z,7.141418
2023-04-16T06:36:30.703Z,7.050781
2023-04-16T06:37:39.332Z,7.131348
2023-04-16T06:38:49.017Z,7.181702
2023-04-16T06:39:57.665Z,7.151489
2023-04-16T06:41:07.362Z,7.211914
2023-04-16T06:42:17.038Z,7.151489
2023-04-16T06:43:25.693Z,7.29248
2023-04-16T06:44:35.434Z,7.362976
2023-04-16T06:45:44.159Z,7.403259
2023-04-16T06:46:51.868Z,7.473755
2023-04-16T06:48:02.543Z,7.503967
2023-04-16T06:49:10.293Z,7.53418
2023-04-16T06:50:18.940Z,7.614746
2023-04-16T06:51:28.606Z,7.574463
2023-04-16T06:52:36.324Z,7.604675
2023-04-16T06:53:44.948Z,7.634888
2023-04-16T06:54:54.617Z,7.685242
2023-04-16T06:56:04.362Z,7.745667
2023-04-16T06:57:14.013Z,7.796021
2023-04-16T06:58:21.702Z,7.755737
2023-04-16T06:59:29.360Z,7.765808
2023-04-16T07:00:39.063Z,7.906799
2023-04-16T07:01:46.721Z,7.745667
2023-04-16T07:02:58.476Z,7.816162
2023-04-16T07:04:06.132Z,7.765808
2023-04-16T07:05:15.750Z,7.725525
2023-04-16T07:06:25.487Z,7.715454
2023-04-16T07:07:33.140Z,7.765808
2023-04-16T07:08:41.838Z,7.896729
2023-04-16T07:09:51.487Z,7.977295
2023-04-16T07:10:59.185Z,7.947083
2023-04-16T07:12:08.871Z,7.977295
2023-04-16T07:13:17.556Z,8.047791
2023-04-16T07:14:25.235Z,8.158569
2023-04-16T07:15:34.895Z,7.997437
2023-04-16T07:16:43.620Z,8.027649
2023-04-16T07:17:52.270Z,8.007507
2023-04-16T07:19:01.956Z,7.947083
2023-04-16T07:20:10.650Z,7.78595
2023-04-16T07:21:20.360Z,7.866516
2023-04-16T07:22:29.049Z,7.866516
2023-04-16T07:23:37.806Z,7.846375
2023-04-16T07:24:47.517Z,7.796021
2023-04-16T07:25:57.194Z,7.846375
2023-04-16T07:27:06.882Z,7.906799
2023-04-16T07:28:16.579Z,8.047791
2023-04-16T07:29:24.233Z,8.078003
2023-04-16T07:30:33.906Z,8.007507
2023-04-16T07:31:42.667Z,7.967224
2023-04-16T07:32:50.342Z,8.007507
2023-04-16T07:34:00.030Z,8.007507
2023-04-16T07:35:08.790Z,7.977295
2023-04-16T07:36:17.476Z,8.047791
2023-04-16T07:37:27.164Z,8.078003
2023-04-16T07:38:35.850Z,8.027649
2023-04-16T07:39:45.513Z,8.148499
2023-04-16T07:40:54.255Z,8.158569
2023-04-16T07:42:02.894Z,8.098145
2023-04-16T07:43:12.598Z,8.158569
2023-04-16T07:44:21.294Z,8.027649
2023-04-16T07:45:29.973Z,8.118286
2023-04-16T07:46:46.674Z,8.259277
2023-04-16T07:47:49.417Z,8.188782
2023-04-16T07:48:59.126Z,8.299561
2023-04-16T07:50:08.817Z,8.269348
2023-04-16T07:51:17.518Z,8.380127
2023-04-16T07:52:27.209Z,8.410339
2023-04-16T07:53:36.890Z,8.480835
2023-04-16T07:54:46.706Z,8.561401
2023-04-16T07:55:56.324Z,8.641968
2023-04-16T07:57:04.036Z,8.611755
2023-04-16T07:58:13.666Z,8.641968
2023-04-16T07:59:23.842Z,8.67218
2023-04-16T08:00:31.041Z,8.662109
2023-04-16T08:01:40.741Z,8.662109
2023-04-16T08:02:49.532Z,8.561401
2023-04-16T08:03:58.221Z,8.329773
2023-04-16T08:05:07.920Z,8.329773
2023-04-16T08:06:15.568Z,8.460693
2023-04-16T08:07:25.247Z,8.581543
2023-04-16T08:08:35.901Z,8.702393
2023-04-16T08:09:44.604Z,8.581543
2023-04-16T08:10:54.365Z,8.641968
2023-04-16T08:12:02.985Z,8.601685
2023-04-16T08:13:11.718Z,8.601685
2023-04-16T08:14:21.320Z,8.762817
2023-04-16T08:15:30.156Z,8.823242
2023-04-16T08:16:39.713Z,8.893738
2023-04-16T08:17:48.422Z,8.762817
2023-04-16T08:18:57.073Z,8.380127
2023-04-16T08:20:06.744Z,8.339844
2023-04-16T08:21:16.439Z,8.490906
2023-04-16T08:22:25.111Z,8.581543
2023-04-16T08:23:34.786Z,8.702393
2023-04-16T08:24:42.477Z,8.531189
2023-04-16T08:25:53.034Z,8.490906
2023-04-16T08:27:05.311Z,8.611755
2023-04-16T08:28:10.501Z,8.67218
2023-04-16T08:29:18.179Z,8.762817
2023-04-16T08:30:26.821Z,8.732605
2023-04-16T08:31:36.581Z,8.813171
2023-04-16T08:32:46.402Z,8.67218
2023-04-16T08:33:54.936Z,8.843384
2023-04-16T08:35:04.609Z,8.712463
2023-04-16T08:36:13.437Z,8.762817
2023-04-16T08:37:23.123Z,8.893738
2023-04-16T08:38:31.805Z,8.954163
2023-04-16T08:39:40.542Z,8.873596
2023-04-16T08:40:50.246Z,8.954163
2023-04-16T08:41:59.065Z,8.944092
2023-04-16T08:43:08.756Z,8.994446
2023-04-16T08:44:18.567Z,9.185791
2023-04-16T08:45:26.282Z,9.064941
2023-04-16T08:46:36.124Z,9.216003
2023-04-16T08:47:43.788Z,9.17572
2023-04-16T08:48:52.428Z,9.105225
2023-04-16T08:50:02.117Z,9.226074
2023-04-16T08:51:09.906Z,9.276428
2023-04-16T08:52:18.600Z,9.316711
2023-04-16T08:53:27.265Z,9.437561
2023-04-16T08:54:34.937Z,9.457703
2023-04-16T08:55:44.607Z,9.477844
2023-04-16T08:56:52.381Z,9.54834
2023-04-16T08:58:01.069Z,9.467773
2023-04-16T08:59:10.938Z,9.457703
2023-04-16T09:00:18.406Z,9.558411
2023-04-16T09:01:27.172Z,9.558411
2023-04-16T09:02:37.068Z,9.729614
2023-04-16T09:03:45.670Z,9.820251
2023-04-16T09:04:55.292Z,9.759827
2023-04-16T09:06:03.943Z,9.80011
2023-04-16T09:07:12.600Z,10.011597
2023-04-16T09:08:22.286Z,10.132446
2023-04-16T09:09:31.936Z,10.162659
2023-04-16T09:10:39.607Z,10.072021
2023-04-16T09:11:49.288Z,10.162659
2023-04-16T09:12:56.952Z,10.283508
2023-04-16T09:14:06.642Z,10.374146
2023-04-16T09:15:16.314Z,10.313721
2023-04-16T09:16:25.131Z,10.354004
2023-04-16T09:17:34.786Z,10.464783
2023-04-16T09:18:44.371Z,10.464783
2023-04-16T09:19:52.063Z,10.505066
2023-04-16T09:21:01.737Z,10.585632
2023-04-16T09:22:09.486Z,10.67627
2023-04-16T09:23:18.142Z,10.494995
2023-04-16T09:24:27.815Z,10.535278
2023-04-16T09:25:35.518Z,10.67627
2023-04-16T09:26:44.258Z,10.917969
2023-04-16T09:27:53.924Z,10.787048
2023-04-16T09:29:02.646Z,10.958252
2023-04-16T09:30:12.323Z,10.998535
2023-04-16T09:31:21.058Z,10.998535
2023-04-16T09:32:30.762Z,11.038818
2023-04-16T09:33:40.451Z,10.93811
2023-04-16T09:34:49.117Z,10.968323
2023-04-16T09:35:58.801Z,10.958252
2023-04-16T09:37:08.508Z,11.149597
2023-04-16T09:38:16.214Z,11.230164
2023-04-16T09:39:25.863Z,11.451721
2023-04-16T09:40:33.543Z,11.451721
2023-04-16T09:41:42.250Z,11.512146
2023-04-16T09:42:51.918Z,11.481934
2023-04-16T09:43:59.578Z,11.411438
2023-04-16T09:45:09.275Z,11.481934
2023-04-16T09:46:17.965Z,11.592712
2023-04-16T09:47:26.695Z,11.572571
2023-04-16T09:48:36.317Z,11.522217
2023-04-16T09:49:44.026Z,11.471863
2023-04-16T09:50:52.685Z,11.522217
2023-04-16T09:52:02.515Z,11.552429
2023-04-16T09:53:11.130Z,11.44165
2023-04-16T09:54:20.826Z,11.411438
2023-04-16T09:55:29.572Z,11.300659
2023-04-16T09:56:37.811Z,11.290588
2023-04-16T09:57:47.972Z,11.351013
2023-04-16T09:58:56.213Z,11.451721
2023-04-16T10:00:04.999Z,11.451721
2023-04-16T10:01:14.790Z,11.68335
2023-04-16T10:02:23.500Z,11.733704
2023-04-16T10:03:33.312Z,11.834412
2023-04-16T10:04:41.840Z,11.81427
2023-04-16T10:05:49.527Z,11.874695
2023-04-16T10:06:59.224Z,11.864624
2023-04-16T10:08:08.877Z,11.602783
2023-04-16T10:09:18.564Z,11.844482
2023-04-16T10:10:27.226Z,11.94519
2023-04-16T10:11:35.898Z,12.025757
2023-04-16T10:12:45.554Z,12.19696
2023-04-16T10:13:53.215Z,12.19696
2023-04-16T10:15:01.864Z,12.247314
2023-04-16T10:16:11.548Z,12.19696
2023-04-16T10:17:20.287Z,12.116394
2023-04-16T10:18:29.940Z,11.904907
2023-04-16T10:19:38.622Z,11.874695
2023-04-16T10:20:48.363Z,11.884766
2023-04-16T10:21:58.064Z,11.602783
2023-04-16T10:23:07.745Z,11.784058
2023-04-16T10:24:15.421Z,11.512146
2023-04-16T10:25:25.091Z,11.330872
2023-04-16T10:26:33.814Z,11.371155
2023-04-16T10:27:42.519Z,11.270447
2023-04-16T10:28:52.217Z,11.169739
2023-04-16T10:29:59.891Z,11.149597
2023-04-16T10:31:09.727Z,11.149597
2023-04-16T10:32:18.298Z,10.93811
2023-04-16T10:33:25.934Z,10.837402
2023-04-16T10:34:35.632Z,10.756836
2023-04-16T10:35:52.301Z,10.887756
2023-04-16T10:36:56.707Z,11.069031
2023-04-16T10:38:06.398Z,11.169739
2023-04-16T10:39:16.952Z,11.220093
2023-04-16T10:40:24.779Z,11.220093
2023-04-16T10:41:34.466Z,11.230164
2023-04-16T10:42:44.184Z,11.17981
2023-04-16T10:43:53.916Z,10.92804
2023-04-16T10:45:02.577Z,11.069031
2023-04-16T10:46:11.284Z,11.109314
2023-04-16T10:47:20.968Z,11.139526
2023-04-16T10:48:33.074Z,11.230164
2023-04-16T10:49:39.316Z,11.401367
2023-04-16T10:50:49.916Z,11.451721
2023-04-16T10:51:57.703Z,11.048889
2023-04-16T10:53:07.349Z,11.18988
2023-04-16T10:54:16.079Z,11.119385
2023-04-16T10:55:24.729Z,11.330872
2023-04-16T10:56:34.403Z,11.502075
2023-04-16T10:57:42.185Z,11.361084
2023-04-16T10:58:51.872Z,11.411438
2023-04-16T11:00:00.552Z,11.069031
2023-04-16T11:01:08.222Z,11.220093
2023-04-16T11:02:18.428Z,11.351013
2023-04-16T11:03:27.641Z,11.300659
2023-04-16T11:04:35.372Z,11.018677
2023-04-16T11:05:44.925Z,11.169739
2023-04-16T11:06:53.595Z,11.109314
2023-04-16T11:08:02.320Z,10.968323
2023-04-16T11:09:11.141Z,10.92804
2023-04-16T11:10:19.807Z,10.968323
2023-04-16T11:11:29.435Z,11.018677
2023-04-16T11:12:39.146Z,11.149597
2023-04-16T11:13:48.852Z,11.260376
2023-04-16T11:14:58.506Z,11.139526
2023-04-16T11:16:07.269Z,11.048889
2023-04-16T11:17:15.896Z,11.018677
2023-04-16T11:18:25.608Z,11.18988
2023-04-16T11:19:34.291Z,11.270447
2023-04-16T11:20:42.985Z,11.361084
2023-04-16T11:21:51.684Z,11.522217
2023-04-16T11:22:59.424Z,11.773987
2023-04-16T11:24:09.084Z,11.904907
2023-04-16T11:25:17.760Z,12.025757
2023-04-16T11:26:26.467Z,12.035828
2023-04-16T11:27:36.128Z,11.914978
2023-04-16T11:28:44.816Z,12.086182
2023-04-16T11:29:54.518Z,12.19696
2023-04-16T11:31:04.393Z,12.398376
2023-04-16T11:32:13.058Z,12.247314
2023-04-16T11:33:22.790Z,12.287598
2023-04-16T11:34:32.539Z,12.388306
2023-04-16T11:35:41.244Z,12.31781
2023-04-16T11:36:51.920Z,12.388306
2023-04-16T11:37:59.596Z,12.19696
2023-04-16T11:39:08.384Z,12.176819
2023-04-16T11:40:17.965Z,12.055969
2023-04-16T11:41:25.638Z,11.834412
2023-04-16T11:42:35.388Z,11.753845
2023-04-16T11:43:45.040Z,11.703491
2023-04-16T11:44:53.720Z,11.602783
2023-04-16T11:46:07.854Z,11.602783
2023-04-16T11:47:14.122Z,11.552429
2023-04-16T11:48:22.789Z,11.522217
2023-04-16T11:49:32.462Z,11.471863
2023-04-16T11:50:40.114Z,11.371155
2023-04-16T11:51:49.801Z,11.320801
2023-04-16T11:52:59.519Z,11.260376
2023-04-16T11:54:11.793Z,11.220093
2023-04-16T11:55:18.916Z,11.230164
2023-04-16T11:56:27.569Z,11.119385
2023-04-16T11:57:36.649Z,11.270447
2023-04-16T11:58:46.348Z,11.220093
2023-04-16T12:00:01.107Z,11.300659
2023-04-16T12:01:05.659Z,11.290588
2023-04-16T12:02:15.400Z,11.401367
2023-04-16T12:03:23.237Z,11.320801
2023-04-16T12:04:32.825Z,11.300659
2023-04-16T12:05:40.449Z,11.17981
2023-04-16T12:06:49.131Z,11.411438
2023-04-16T12:07:58.878Z,11.44165
2023-04-16T12:09:06.587Z,11.592712
2023-04-16T12:10:16.261Z,11.632996
2023-04-16T12:11:24.953Z,11.542358
2023-04-16T12:12:33.626Z,11.43158
2023-04-16T12:13:43.332Z,11.351013
2023-04-16T12:14:52.048Z,11.401367
2023-04-16T12:16:00.668Z,11.371155
2023-04-16T12:17:09.456Z,11.401367
2023-04-16T12:18:17.099Z,11.572571
2023-04-16T12:19:25.730Z,11.451721
2023-04-16T12:20:34.393Z,11.44165
2023-04-16T12:21:42.132Z,11.512146
2023-04-16T12:22:51.817Z,11.592712
2023-04-16T12:23:59.543Z,11.371155
2023-04-16T12:25:08.217Z,11.43158
2023-04-16T12:26:17.926Z,11.622925
2023-04-16T12:27:26.600Z,11.733704
2023-04-16T12:28:36.360Z,11.592712
2023-04-16T12:29:45.103Z,11.632996
2023-04-16T12:30:53.890Z,11.622925
2023-04-16T12:32:03.565Z,11.512146
2023-04-16T12:33:12.371Z,11.502075
2023-04-16T12:34:21.034Z,11.522217
2023-04-16T12:35:31.669Z,11.471863
2023-04-16T12:36:39.346Z,11.320801
2023-04-16T12:37:49.073Z,11.411438
2023-04-16T12:38:58.768Z,11.361084
2023-04-16T12:40:06.442Z,11.270447
2023-04-16T12:41:16.136Z,11.411438
2023-04-16T12:42:23.851Z,11.320801
2023-04-16T12:43:32.541Z,11.270447
2023-04-16T12:44:42.225Z,11.230164
2023-04-16T12:45:49.866Z,11.250305
2023-04-16T12:46:59.547Z,11.169739
2023-04-16T12:48:09.253Z,11.139526
2023-04-16T12:49:18.939Z,11.220093
2023-04-16T12:50:28.628Z,11.351013
2023-04-16T12:51:36.295Z,11.371155
2023-04-16T12:52:45.006Z,11.371155
2023-04-16T12:53:54.708Z,11.300659
2023-04-16T12:55:02.361Z,11.371155
2023-04-16T12:56:12.052Z,11.290588
2023-04-16T12:57:20.715Z,11.351013
2023-04-16T12:58:28.397Z,11.320801
2023-04-16T12:59:38.070Z,11.502075
2023-04-16T13:00:45.765Z,11.512146
2023-04-16T13:01:55.513Z,11.552429
2023-04-16T13:03:05.192Z,11.290588
2023-04-16T13:04:14.909Z,11.260376
2023-04-16T13:05:25.514Z,11.371155
2023-04-16T13:06:35.176Z,11.411438
2023-04-16T13:07:43.863Z,11.481934
2023-04-16T13:08:52.603Z,11.522217
2023-04-16T13:10:02.403Z,11.602783
2023-04-16T13:11:12.004Z,11.44165
2023-04-16T13:12:21.639Z,11.149597
2023-04-16T13:13:30.341Z,11.250305
2023-04-16T13:14:38.002Z,11.320801
2023-04-16T13:15:47.676Z,11.169739
2023-04-16T13:16:56.316Z,11.038818
2023-04-16T13:18:06.062Z,11.099243
2023-04-16T13:19:15.806Z,10.93811
2023-04-16T13:20:25.449Z,10.998535
2023-04-16T13:21:35.120Z,10.958252
2023-04-16T13:22:43.799Z,10.817261
2023-04-16T13:23:52.498Z,11.038818
2023-04-16T13:25:02.180Z,11.17981